Time;durP1;ratioP1;P1;durP2;ratioP2;P2;SDS_P1;SDS_P2;PMS_P1;PMS_P2;Temp;Humidity;BMP_temperature;BMP_pressure;BME280_temperature;BME280_humidity;BME280_pressure;Samples;Min_cycle;Max_cycle;Signal;HPM_P1;HPM_P2
2021/03/21 00:01:09;;;;;;;0.20;0.20;;;;;;;;;;5090552;28;20191;-70
2021/03/21 00:03:35;;;;;;;0.20;0.20;;;;;;;;;;5068483;28;20184;-70
2021/03/21 00:06:01;;;;;;;0.20;0.20;;;;;;;;;;5052677;28;20199;-70
2021/03/21 00:08:29;;;;;;;0.10;0.10;;;;;;;;;;5070569;28;20208;-70
2021/03/21 00:10:56;;;;;;;0.20;0.20;;;;;;;;;;5070730;28;20227;-70
2021/03/21 00:13:22;;;;;;;0.10;0.10;;;;;;;;;;5052791;28;20171;-70
2021/03/21 00:15:49;;;;;;;0.73;0.73;;;;;;;;;;5052531;28;20583;-71
2021/03/21 00:18:15;;;;;;;0.55;0.55;;;;;;;;;;5070590;28;20727;-71
2021/03/21 00:20:42;;;;;;;1.07;1.07;;;;;;;;;;5069861;28;20165;-70
2021/03/21 00:23:09;;;;;;;0.10;0.10;;;;;;;;;;5070273;28;20300;-71
2021/03/21 00:25:37;;;;;;;0.10;0.10;;;;;;;;;;5052025;28;20184;-70
2021/03/21 00:28:08;;;;;;;0.30;0.30;;;;;;;;;;5070190;28;20184;-71
2021/03/21 00:30:41;;;;;;;0.20;0.20;;;;;;;;;;5070153;28;20222;-70
2021/03/21 00:33:09;;;;;;;1.00;0.77;;;;;;;;;;5069750;28;20185;-70
2021/03/21 00:35:35;;;;;;;0.10;0.10;;;;;;;;;;5069923;28;20161;-70
2021/03/21 00:38:04;;;;;;;0.25;0.25;;;;;;;;;;5070011;28;20161;-70
2021/03/21 00:40:30;;;;;;;0.20;0.20;;;;;;;;;;5050974;28;20172;-70
2021/03/21 00:42:57;;;;;;;0.10;0.10;;;;;;;;;;5070017;28;20578;-70
2021/03/21 00:45:24;;;;;;;0.20;0.20;;;;;;;;;;5069602;28;20172;-70
2021/03/21 00:47:52;;;;;;;0.40;0.40;;;;;;;;;;5069687;28;20224;-70
2021/03/21 00:50:29;;;;;;;0.20;0.20;;;;;;;;;;5069665;28;20212;-70
2021/03/21 00:52:56;;;;;;;0.20;0.20;;;;;;;;;;5081053;28;20191;-70
2021/03/21 00:55:22;;;;;;;0.93;0.93;;;;;;;;;;5089374;28;20155;-70
2021/03/21 00:57:48;;;;;;;0.10;0.10;;;;;;;;;;5089736;28;20168;-71
2021/03/21 01:00:21;;;;;;;0.50;0.50;;;;;;;;;;5089311;28;20217;-71
2021/03/21 01:02:48;;;;;;;0.10;0.10;;;;;;;;;;5071531;28;20179;-71
2021/03/21 01:05:34;;;;;;;0.30;0.30;;;;;;;;;;5071185;28;20256;-71
2021/03/21 01:08:01;;;;;;;0.30;0.30;;;;;;;;;;5089111;28;20179;-71
2021/03/21 01:10:29;;;;;;;0.63;0.63;;;;;;;;;;5081987;28;20208;-70
2021/03/21 01:12:57;;;;;;;0.10;0.10;;;;;;;;;;5050797;28;20176;-71
2021/03/21 01:15:24;;;;;;;0.13;0.13;;;;;;;;;;5068889;28;20204;-70
2021/03/21 01:17:50;;;;;;;0.10;0.10;;;;;;;;;;5069098;28;20172;-71
2021/03/21 01:20:19;;;;;;;0.10;0.10;;;;;;;;;;5050047;28;20198;-70
2021/03/21 01:22:45;;;;;;;0.10;0.10;;;;;;;;;;5068889;28;20164;-70
2021/03/21 01:25:12;;;;;;;0.10;0.10;;;;;;;;;;5068601;28;20161;-70
2021/03/21 01:27:38;;;;;;;0.17;0.17;;;;;;;;;;5069054;28;20192;-70
2021/03/21 01:30:05;;;;;;;0.10;0.10;;;;;;;;;;5068510;28;20200;-70
2021/03/21 01:32:31;;;;;;;0.13;0.13;;;;;;;;;;5068437;28;20161;-70
2021/03/21 01:34:58;;;;;;;0.63;0.63;;;;;;;;;;5050646;28;20180;-70
2021/03/21 01:37:24;;;;;;;0.10;0.10;;;;;;;;;;5068969;28;20167;-70
2021/03/21 01:39:50;;;;;;;0.23;0.23;;;;;;;;;;5050682;28;20185;-70
2021/03/21 01:42:16;;;;;;;0.20;0.20;;;;;;;;;;5068679;28;20161;-70
2021/03/21 01:44:43;;;;;;;0.10;0.10;;;;;;;;;;5050872;28;20200;-70
2021/03/21 01:47:16;;;;;;;0.10;0.10;;;;;;;;;;5068402;28;20268;-70
2021/03/21 01:49:44;;;;;;;0.20;0.20;;;;;;;;;;5068688;28;20181;-69
2021/03/21 01:52:12;;;;;;;1.23;1.07;;;;;;;;;;5068196;28;20187;-70
2021/03/21 01:54:38;;;;;;;0.10;0.10;;;;;;;;;;5068459;28;20172;-70
2021/03/21 01:57:05;;;;;;;0.30;0.30;;;;;;;;;;5068418;28;20215;-70
2021/03/21 01:59:35;;;;;;;0.40;0.40;;;;;;;;;;5068271;28;20170;-70
2021/03/21 02:02:02;;;;;;;0.10;0.10;;;;;;;;;;5068325;28;20542;-70
2021/03/21 02:04:29;;;;;;;0.17;0.17;;;;;;;;;;5067998;28;20220;-70
2021/03/21 02:07:09;;;;;;;0.20;0.20;;;;;;;;;;5068236;28;20258;-70
2021/03/21 02:10:10;;;;;;;0.20;0.20;;;;;;;;;;5067562;28;20214;-70
2021/03/21 02:12:54;;;;;;;0.10;0.10;;;;;;;;;;4987111;28;20194;-70
2021/03/21 02:15:23;;;;;;;0.10;0.10;;;;;;;;;;4986877;28;20223;-70
2021/03/21 02:17:52;;;;;;;0.10;0.10;;;;;;;;;;4987465;28;20714;-69
2021/03/21 02:20:27;;;;;;;0.10;0.10;;;;;;;;;;4986146;28;20234;-70
2021/03/21 02:22:58;;;;;;;0.17;0.17;;;;;;;;;;4986038;28;20190;-71
2021/03/21 02:25:41;;;;;;;0.10;0.10;;;;;;;;;;4986985;28;20223;-71
2021/03/21 02:28:15;;;;;;;0.20;0.20;;;;;;;;;;4987173;28;20802;-70
2021/03/21 02:30:47;;;;;;;0.10;0.10;;;;;;;;;;4986807;28;20203;-71
2021/03/21 02:33:25;;;;;;;0.10;0.10;;;;;;;;;;4970706;28;20183;-70
2021/03/21 02:35:57;;;;;;;0.20;0.20;;;;;;;;;;4970503;28;20243;-71
2021/03/21 02:38:24;;;;;;;0.10;0.10;;;;;;;;;;4986921;28;20223;-70
2021/03/21 02:40:57;;;;;;;0.10;0.10;;;;;;;;;;4986855;28;20195;-70
2021/03/21 02:43:27;;;;;;;0.10;0.10;;;;;;;;;;4970532;28;20175;-69
2021/03/21 02:45:56;;;;;;;0.10;0.10;;;;;;;;;;4983501;28;20185;-70
2021/03/21 02:48:30;;;;;;;0.20;0.20;;;;;;;;;;5029816;28;20267;-69
2021/03/21 02:51:06;;;;;;;0.20;0.20;;;;;;;;;;5047854;28;20216;-71
2021/03/21 02:53:52;;;;;;;0.40;0.40;;;;;;;;;;5047684;28;20252;-71
2021/03/21 02:56:21;;;;;;;0.10;0.10;;;;;;;;;;5047236;28;20195;-71
2021/03/21 02:58:49;;;;;;;0.17;0.17;;;;;;;;;;5047867;28;20692;-71
2021/03/21 03:01:28;;;;;;;0.10;0.10;;;;;;;;;;5030282;28;20169;-71
2021/03/21 03:03:57;;;;;;;0.20;0.20;;;;;;;;;;5032035;28;20173;-69
2021/03/21 03:06:47;;;;;;;0.20;0.20;;;;;;;;;;5051859;28;20166;-71
2021/03/21 03:09:22;;;;;;;0.20;0.20;;;;;;;;;;5039104;28;20626;-69
2021/03/21 03:11:56;;;;;;;0.60;0.60;;;;;;;;;;5051656;28;20181;-71
2021/03/21 03:14:24;;;;;;;0.10;0.10;;;;;;;;;;5034090;28;20268;-71
2021/03/21 03:17:02;;;;;;;0.27;0.27;;;;;;;;;;5051879;28;20165;-71
2021/03/21 03:19:49;;;;;;;0.20;0.20;;;;;;;;;;5051071;28;20197;-70
2021/03/21 03:22:51;;;;;;;0.20;0.20;;;;;;;;;;5033925;28;20165;-70
2021/03/21 03:25:23;;;;;;;0.37;0.37;;;;;;;;;;4951922;29;20204;-71
2021/03/21 03:27:55;;;;;;;0.20;0.20;;;;;;;;;;5035580;28;20189;-71
2021/03/21 03:30:25;;;;;;;0.10;0.10;;;;;;;;;;5051306;28;20211;-71
2021/03/21 03:32:51;;;;;;;0.23;0.23;;;;;;;;;;5051453;28;20199;-71
2021/03/21 03:35:19;;;;;;;2.00;1.90;;;;;;;;;;5051443;28;20165;-71
2021/03/21 03:37:45;;;;;;;0.20;0.20;;;;;;;;;;5051543;28;20158;-71
2021/03/21 03:40:12;;;;;;;0.20;0.20;;;;;;;;;;5033230;28;20197;-71
2021/03/21 03:42:47;;;;;;;0.50;0.47;;;;;;;;;;5051426;28;20180;-71
2021/03/21 03:45:16;;;;;;;0.40;0.40;;;;;;;;;;5051312;28;20165;-71
2021/03/21 03:47:48;;;;;;;0.17;0.17;;;;;;;;;;5033070;28;20221;-71
2021/03/21 03:50:33;;;;;;;0.20;0.20;;;;;;;;;;5051110;28;20664;-71
2021/03/21 03:52:59;;;;;;;0.20;0.20;;;;;;;;;;5032986;28;20176;-71
2021/03/21 03:55:47;;;;;;;0.40;0.40;;;;;;;;;;5051092;28;20165;-70
2021/03/21 03:58:24;;;;;;;0.30;0.30;;;;;;;;;;5050663;28;20188;-69
2021/03/21 04:00:59;;;;;;;0.20;0.20;;;;;;;;;;5033111;28;20177;-70
2021/03/21 04:03:29;;;;;;;0.10;0.10;;;;;;;;;;5050285;28;20179;-70
2021/03/21 04:05:59;;;;;;;0.30;0.30;;;;;;;;;;5050613;28;20229;-70
2021/03/21 04:08:29;;;;;;;0.20;0.20;;;;;;;;;;5050199;28;20207;-69
2021/03/21 04:10:59;;;;;;;0.20;0.20;;;;;;;;;;5049794;28;20193;-69
2021/03/21 04:13:29;;;;;;;0.20;0.20;;;;;;;;;;5050220;28;20173;-70
2021/03/21 04:15:56;;;;;;;0.20;0.20;;;;;;;;;;5032325;28;20278;-70
2021/03/21 04:18:26;;;;;;;0.20;0.20;;;;;;;;;;5032595;28;20200;-64
2021/03/21 04:20:57;;;;;;;0.27;0.27;;;;;;;;;;5050345;28;20161;-65
2021/03/21 04:23:36;;;;;;;0.20;0.20;;;;;;;;;;5050278;28;20161;-67
2021/03/21 04:26:06;;;;;;;0.20;0.20;;;;;;;;;;5050546;28;20170;-64
2021/03/21 04:28:39;;;;;;;0.20;0.20;;;;;;;;;;5032510;28;20223;-64
2021/03/21 04:31:06;;;;;;;0.20;0.20;;;;;;;;;;5050218;28;20193;-64
2021/03/21 04:34:11;;;;;;;0.20;0.20;;;;;;;;;;5050055;28;20173;-67
2021/03/21 04:36:39;;;;;;;0.10;0.10;;;;;;;;;;4950528;29;20247;-64
2021/03/21 04:39:07;;;;;;;0.20;0.20;;;;;;;;;;4950302;29;20241;-64
2021/03/21 04:41:36;;;;;;;0.20;0.20;;;;;;;;;;4950391;29;20193;-67
2021/03/21 04:44:05;;;;;;;0.10;0.10;;;;;;;;;;4950290;29;20180;-67
2021/03/21 04:46:38;;;;;;;0.10;0.10;;;;;;;;;;4950525;29;20172;-64
2021/03/21 04:49:04;;;;;;;0.20;0.20;;;;;;;;;;4950028;29;20220;-64
2021/03/21 04:51:32;;;;;;;0.60;0.60;;;;;;;;;;4950106;29;20243;-64
2021/03/21 04:54:00;;;;;;;0.20;0.20;;;;;;;;;;4950184;29;20192;-65
2021/03/21 04:56:41;;;;;;;0.10;0.10;;;;;;;;;;4950251;29;20244;-64
2021/03/21 04:59:23;;;;;;;0.20;0.20;;;;;;;;;;4950107;29;20227;-65
2021/03/21 05:01:55;;;;;;;0.33;0.33;;;;;;;;;;4949974;29;20193;-67
2021/03/21 05:04:47;;;;;;;0.20;0.20;;;;;;;;;;4949645;29;20204;-64
2021/03/21 05:07:25;;;;;;;0.20;0.20;;;;;;;;;;4984878;28;20190;-64
2021/03/21 05:09:54;;;;;;;0.27;0.27;;;;;;;;;;5029669;28;20198;-66
2021/03/21 05:12:24;;;;;;;0.20;0.20;;;;;;;;;;5029220;28;20185;-66
2021/03/21 05:15:09;;;;;;;0.20;0.20;;;;;;;;;;5029663;28;20166;-67
2021/03/21 05:17:54;;;;;;;0.17;0.17;;;;;;;;;;5012000;28;20177;-66
2021/03/21 05:20:29;;;;;;;0.10;0.10;;;;;;;;;;5029279;28;20259;-66
2021/03/21 05:22:58;;;;;;;0.10;0.10;;;;;;;;;;5012036;28;20188;-66
2021/03/21 05:25:35;;;;;;;0.10;0.10;;;;;;;;;;5029185;28;20194;-66
2021/03/21 05:28:01;;;;;;;0.20;0.20;;;;;;;;;;5029142;28;20170;-65
2021/03/21 05:30:30;;;;;;;0.23;0.23;;;;;;;;;;5029419;28;20250;-64
2021/03/21 05:32:58;;;;;;;0.20;0.20;;;;;;;;;;5029390;28;20189;-64
2021/03/21 05:35:26;;;;;;;0.20;0.20;;;;;;;;;;5029281;28;20181;-65
2021/03/21 05:38:12;;;;;;;0.43;0.43;;;;;;;;;;5029336;28;20181;-65
2021/03/21 05:40:56;;;;;;;0.20;0.20;;;;;;;;;;5029523;28;20665;-64
2021/03/21 05:43:25;;;;;;;0.20;0.20;;;;;;;;;;5029346;28;20163;-64
2021/03/21 05:46:07;;;;;;;0.20;0.20;;;;;;;;;;5029216;28;20170;-64
2021/03/21 05:48:33;;;;;;;0.20;0.20;;;;;;;;;;5044683;28;20233;-64
2021/03/21 05:51:32;;;;;;;0.20;0.20;;;;;;;;;;5048816;28;20195;-64
2021/03/21 05:54:13;;;;;;;0.10;0.10;;;;;;;;;;4949153;29;20195;-67
2021/03/21 05:56:48;;;;;;;0.60;0.60;;;;;;;;;;4949202;29;20256;-65
2021/03/21 05:59:33;;;;;;;0.20;0.20;;;;;;;;;;4948959;29;20204;-65
2021/03/21 06:02:02;;;;;;;0.20;0.20;;;;;;;;;;4948771;29;20216;-66
2021/03/21 06:04:47;;;;;;;0.20;0.20;;;;;;;;;;4948424;29;20223;-64
2021/03/21 06:07:16;;;;;;;0.25;0.25;;;;;;;;;;4949213;29;20177;-66
2021/03/21 06:09:45;;;;;;;0.20;0.20;;;;;;;;;;4948981;29;20247;-66
2021/03/21 06:12:14;;;;;;;0.20;0.20;;;;;;;;;;4948659;29;20224;-64
2021/03/21 06:14:58;;;;;;;0.13;0.13;;;;;;;;;;4948876;29;20603;-64
2021/03/21 06:17:43;;;;;;;0.20;0.20;;;;;;;;;;4948826;29;20200;-66
2021/03/21 06:20:29;;;;;;;0.10;0.10;;;;;;;;;;4948308;29;20224;-67
2021/03/21 06:23:01;;;;;;;0.28;0.28;;;;;;;;;;4948589;29;20268;-66
2021/03/21 06:25:46;;;;;;;0.20;0.20;;;;;;;;;;4948575;29;20260;-66
2021/03/21 06:28:24;;;;;;;0.20;0.20;;;;;;;;;;4948697;29;20180;-66
2021/03/21 06:31:09;;;;;;;0.10;0.10;;;;;;;;;;5047894;28;20212;-67
2021/03/21 06:33:45;;;;;;;0.17;0.17;;;;;;;;;;5048211;28;20184;-64
2021/03/21 06:36:14;;;;;;;0.10;0.10;;;;;;;;;;5047566;28;20228;-65
2021/03/21 06:39:09;;;;;;;2.65;2.45;;;;;;;;;;5048051;28;20260;-65
2021/03/21 06:41:51;;;;;;;0.13;0.13;;;;;;;;;;5047952;28;20157;-67
2021/03/21 06:44:35;;;;;;;0.10;0.10;;;;;;;;;;5030451;28;20181;-66
2021/03/21 06:47:05;;;;;;;0.10;0.10;;;;;;;;;;5047813;28;20250;-64
2021/03/21 06:50:03;;;;;;;0.10;0.10;;;;;;;;;;5047954;28;20231;-66
2021/03/21 06:52:29;;;;;;;0.10;0.10;;;;;;;;;;4993842;28;20205;-66
2021/03/21 06:55:00;;;;;;;0.10;0.10;;;;;;;;;;5048022;28;20173;-67
2021/03/21 06:57:35;;;;;;;0.35;0.35;;;;;;;;;;5030233;28;20170;-65
2021/03/21 07:00:01;;;;;;;0.25;0.25;;;;;;;;;;5047958;28;20208;-65
2021/03/21 07:02:42;;;;;;;0.10;0.10;;;;;;;;;;5047656;28;20158;-65
2021/03/21 07:05:27;;;;;;;0.10;0.10;;;;;;;;;;5047631;28;20221;-65
2021/03/21 07:08:19;;;;;;;0.10;0.10;;;;;;;;;;5047586;28;20310;-66
2021/03/21 07:10:57;;;;;;;0.10;0.10;;;;;;;;;;5010301;28;20281;-66
2021/03/21 07:13:50;;;;;;;0.10;0.10;;;;;;;;;;5047783;28;20158;-66
2021/03/21 07:16:43;;;;;;;0.10;0.10;;;;;;;;;;5047813;28;20221;-66
2021/03/21 07:19:19;;;;;;;0.10;0.10;;;;;;;;;;5047377;28;20216;-66
2021/03/21 07:21:57;;;;;;;0.10;0.10;;;;;;;;;;5047060;28;20193;-66
2021/03/21 07:24:37;;;;;;;0.10;0.10;;;;;;;;;;5058716;28;20161;-66
2021/03/21 07:27:10;;;;;;;0.10;0.10;;;;;;;;;;5049604;28;20230;-65
2021/03/21 07:29:39;;;;;;;0.47;0.47;;;;;;;;;;5067317;28;20200;-65
2021/03/21 07:32:14;;;;;;;0.43;0.43;;;;;;;;;;5066818;28;20215;-65
2021/03/21 07:34:48;;;;;;;0.22;0.22;;;;;;;;;;5067291;28;20195;-65
2021/03/21 07:37:17;;;;;;;0.17;0.17;;;;;;;;;;5067432;28;20165;-65
2021/03/21 07:40:02;;;;;;;0.20;0.20;;;;;;;;;;5066701;28;20216;-66
2021/03/21 07:42:39;;;;;;;0.20;0.20;;;;;;;;;;5067252;28;20161;-65
2021/03/21 07:45:05;;;;;;;0.20;0.20;;;;;;;;;;5067485;28;20171;-65
2021/03/21 07:47:31;;;;;;;0.10;0.10;;;;;;;;;;5049018;28;20232;-66
2021/03/21 07:50:14;;;;;;;0.10;0.10;;;;;;;;;;5068408;28;20816;-66
2021/03/21 07:52:52;;;;;;;0.10;0.10;;;;;;;;;;5069960;28;20508;-65
2021/03/21 07:55:27;;;;;;;0.10;0.10;;;;;;;;;;5052221;28;20187;-66
2021/03/21 07:57:59;;;;;;;7.03;0.80;;;;;;;;;;5070609;28;20251;-67
2021/03/21 08:00:26;;;;;;;0.15;0.15;;;;;;;;;;5069221;28;20216;-66
2021/03/21 08:03:08;;;;;;;0.13;0.13;;;;;;;;;;5069214;28;20169;-66
2021/03/21 08:05:34;;;;;;;0.63;0.63;;;;;;;;;;5066735;28;20173;-66
2021/03/21 08:08:01;;;;;;;3.13;1.50;;;;;;;;;;5060586;28;20270;-66
2021/03/21 08:10:33;;;;;;;0.52;0.52;;;;;;;;;;5046118;28;20220;-66
2021/03/21 08:13:02;;;;;;;0.55;0.55;;;;;;;;;;5066518;28;20180;-66
2021/03/21 08:15:30;;;;;;;0.13;0.13;;;;;;;;;;5069160;28;20176;-66
2021/03/21 08:18:01;;;;;;;0.22;0.22;;;;;;;;;;5067137;28;20253;-66
2021/03/21 08:20:38;;;;;;;0.35;0.35;;;;;;;;;;5050967;28;20223;-67
2021/03/21 08:23:15;;;;;;;0.75;0.75;;;;;;;;;;5068354;28;20200;-67
2021/03/21 08:25:42;;;;;;;0.10;0.10;;;;;;;;;;5067287;28;20164;-66
2021/03/21 08:28:19;;;;;;;0.32;0.32;;;;;;;;;;5069752;28;20199;-66
2021/03/21 08:30:45;;;;;;;0.20;0.20;;;;;;;;;;5070058;28;20180;-67
2021/03/21 08:33:12;;;;;;;0.68;0.65;;;;;;;;;;5052211;28;20177;-66
2021/03/21 08:35:38;;;;;;;0.10;0.10;;;;;;;;;;5068853;28;20208;-67
2021/03/21 08:38:16;;;;;;;0.30;0.30;;;;;;;;;;5051994;28;20176;-66
2021/03/21 08:40:42;;;;;;;1.45;0.75;;;;;;;;;;5069872;28;20200;-67
2021/03/21 08:43:29;;;;;;;0.43;0.43;;;;;;;;;;5069964;28;20232;-66
2021/03/21 08:46:10;;;;;;;0.10;0.10;;;;;;;;;;5051099;28;20169;-67
2021/03/21 08:48:38;;;;;;;0.10;0.10;;;;;;;;;;5049304;28;20595;-66
2021/03/21 08:51:04;;;;;;;0.85;0.85;;;;;;;;;;5051805;28;20238;-67
2021/03/21 08:53:35;;;;;;;2.55;1.45;;;;;;;;;;5051778;28;20173;-68
2021/03/21 08:56:18;;;;;;;1.05;1.05;;;;;;;;;;5052145;28;20173;-66
2021/03/21 08:58:48;;;;;;;0.10;0.10;;;;;;;;;;5069582;28;20156;-65
2021/03/21 09:01:22;;;;;;;0.63;0.63;;;;;;;;;;5068626;28;20205;-65
2021/03/21 09:03:49;;;;;;;0.85;0.85;;;;;;;;;;5051627;28;20211;-66
2021/03/21 09:06:35;;;;;;;0.10;0.10;;;;;;;;;;5069792;28;20164;-66
2021/03/21 09:09:16;;;;;;;0.10;0.10;;;;;;;;;;5053317;28;20169;-66
2021/03/21 09:11:45;;;;;;;0.10;0.10;;;;;;;;;;5049241;28;20208;-65
2021/03/21 09:14:13;;;;;;;0.88;0.82;;;;;;;;;;5042115;28;20200;-66
2021/03/21 09:16:58;;;;;;;0.75;0.75;;;;;;;;;;5050078;28;20203;-67
2021/03/21 09:19:27;;;;;;;0.10;0.10;;;;;;;;;;5069023;28;20248;-66
2021/03/21 09:21:53;;;;;;;0.20;0.20;;;;;;;;;;5069203;28;20248;-66
2021/03/21 09:24:36;;;;;;;0.10;0.10;;;;;;;;;;5069393;28;20161;-67
2021/03/21 09:27:23;;;;;;;0.68;0.68;;;;;;;;;;5069468;28;20582;-66
2021/03/21 09:29:50;;;;;;;0.55;0.55;;;;;;;;;;5058598;28;20184;-67
2021/03/21 09:32:25;;;;;;;0.80;0.80;;;;;;;;;;5051039;28;20215;-66
2021/03/21 09:34:52;;;;;;;2.35;0.85;;;;;;;;;;5069114;28;20163;-66
2021/03/21 09:37:23;;;;;;;0.40;0.40;;;;;;;;;;5069131;28;20247;-66
2021/03/21 09:39:55;;;;;;;0.22;0.22;;;;;;;;;;5068653;28;20290;-65
2021/03/21 09:42:21;;;;;;;1.77;1.67;;;;;;;;;;5071137;28;20253;-66
2021/03/21 09:44:48;;;;;;;0.10;0.10;;;;;;;;;;5071069;28;20181;-66
2021/03/21 09:47:23;;;;;;;0.25;0.25;;;;;;;;;;5088829;28;20216;-66
2021/03/21 09:49:55;;;;;;;0.20;0.20;;;;;;;;;;5088805;28;20179;-65
2021/03/21 09:52:29;;;;;;;0.20;0.20;;;;;;;;;;5089048;28;20202;-65
2021/03/21 09:55:03;;;;;;;0.10;0.10;;;;;;;;;;5088786;28;20524;-65
2021/03/21 09:57:45;;;;;;;0.13;0.13;;;;;;;;;;5088804;28;20156;-65
2021/03/21 10:00:26;;;;;;;0.10;0.10;;;;;;;;;;5088739;28;20152;-65
2021/03/21 10:03:00;;;;;;;0.30;0.30;;;;;;;;;;5088785;28;20187;-65
2021/03/21 10:05:26;;;;;;;0.32;0.32;;;;;;;;;;5070243;28;20227;-65
2021/03/21 10:08:08;;;;;;;0.65;0.65;;;;;;;;;;5088816;28;20160;-65
2021/03/21 10:10:45;;;;;;;0.20;0.20;;;;;;;;;;5087855;28;20220;-65
2021/03/21 10:13:11;;;;;;;0.77;0.77;;;;;;;;;;5080613;28;20228;-66
2021/03/21 10:15:56;;;;;;;0.65;0.65;;;;;;;;;;5066876;28;20549;-65
2021/03/21 10:18:40;;;;;;;0.30;0.30;;;;;;;;;;5066211;28;20180;-67
2021/03/21 10:21:06;;;;;;;0.20;0.20;;;;;;;;;;5066645;28;20168;-66
2021/03/21 10:23:59;;;;;;;0.68;0.68;;;;;;;;;;5066032;28;20681;-66
2021/03/21 10:26:28;;;;;;;0.10;0.10;;;;;;;;;;5045771;28;20219;-68
2021/03/21 10:28:55;;;;;;;1.27;1.25;;;;;;;;;;5048080;28;20230;-69
2021/03/21 10:31:25;;;;;;;1.00;1.00;;;;;;;;;;5066324;28;20224;-68
2021/03/21 10:33:56;;;;;;;0.73;0.73;;;;;;;;;;5049889;28;20685;-68
2021/03/21 10:36:41;;;;;;;0.20;0.20;;;;;;;;;;5067823;28;20222;-69
2021/03/21 10:39:24;;;;;;;0.13;0.13;;;;;;;;;;5067994;28;20149;-69
2021/03/21 10:41:52;;;;;;;0.10;0.10;;;;;;;;;;5058858;28;20269;-68
2021/03/21 10:44:19;;;;;;;0.10;0.10;;;;;;;;;;5045654;28;20179;-69
2021/03/21 10:46:51;;;;;;;1.20;1.20;;;;;;;;;;5086322;28;20168;-69
2021/03/21 10:49:40;;;;;;;0.88;0.88;;;;;;;;;;5052232;28;20236;-69
2021/03/21 10:52:07;;;;;;;0.20;0.20;;;;;;;;;;5055207;28;20327;-69
2021/03/21 10:54:33;;;;;;;1.65;1.00;;;;;;;;;;5064766;28;20324;-68
2021/03/21 10:57:22;;;;;;;0.75;0.75;;;;;;;;;;5087024;28;20175;-69
2021/03/21 11:00:10;;;;;;;0.35;0.35;;;;;;;;;;5075038;28;20192;-68
2021/03/21 11:02:36;;;;;;;0.10;0.10;;;;;;;;;;5070172;28;20278;-69
2021/03/21 11:05:07;;;;;;;0.10;0.10;;;;;;;;;;5087869;28;20183;-69
2021/03/21 11:07:33;;;;;;;0.20;0.20;;;;;;;;;;5087674;28;20198;-67
2021/03/21 11:10:01;;;;;;;0.20;0.20;;;;;;;;;;5071799;28;20192;-67
2021/03/21 11:12:30;;;;;;;0.40;0.40;;;;;;;;;;5079434;28;20192;-67
2021/03/21 11:14:56;;;;;;;0.65;0.65;;;;;;;;;;5085177;28;20172;-67
2021/03/21 11:17:26;;;;;;;0.10;0.10;;;;;;;;;;5073518;28;20189;-67
2021/03/21 11:19:57;;;;;;;0.13;0.13;;;;;;;;;;5074758;28;20216;-68
2021/03/21 11:22:26;;;;;;;0.10;0.10;;;;;;;;;;5066432;28;20239;-67
2021/03/21 11:24:52;;;;;;;0.10;0.10;;;;;;;;;;5050410;28;20287;-68
2021/03/21 11:27:31;;;;;;;0.55;0.55;;;;;;;;;;5070095;28;20253;-68
2021/03/21 11:30:08;;;;;;;0.47;0.47;;;;;;;;;;5069151;28;20184;-67
2021/03/21 11:32:34;;;;;;;0.10;0.10;;;;;;;;;;5069818;28;20315;-68
2021/03/21 11:35:08;;;;;;;1.52;1.42;;;;;;;;;;5067442;28;20706;-69
2021/03/21 11:37:36;;;;;;;0.20;0.20;;;;;;;;;;5068538;28;20179;-68
2021/03/21 11:40:08;;;;;;;0.52;0.52;;;;;;;;;;5050113;28;20179;-67
2021/03/21 11:42:39;;;;;;;0.47;0.47;;;;;;;;;;5050604;28;20268;-67
2021/03/21 11:45:26;;;;;;;0.90;0.90;;;;;;;;;;5067688;28;20242;-68
2021/03/21 11:47:57;;;;;;;2.00;1.60;;;;;;;;;;5068183;28;20790;-68
2021/03/21 11:50:27;;;;;;;1.02;0.75;;;;;;;;;;5067329;28;20207;-68
2021/03/21 11:52:53;;;;;;;0.10;0.10;;;;;;;;;;5067274;28;20212;-68
2021/03/21 11:55:21;;;;;;;0.20;0.20;;;;;;;;;;5068367;28;20653;-68
2021/03/21 11:57:56;;;;;;;1.13;0.85;;;;;;;;;;5050161;28;20240;-67
2021/03/21 12:00:28;;;;;;;0.10;0.10;;;;;;;;;;5050345;28;20191;-67
2021/03/21 12:03:03;;;;;;;0.55;0.55;;;;;;;;;;5067450;28;20673;-68
2021/03/21 12:05:34;;;;;;;0.10;0.10;;;;;;;;;;5048917;28;20719;-67
2021/03/21 12:08:21;;;;;;;0.57;0.57;;;;;;;;;;5048591;28;20622;-68
2021/03/21 12:10:47;;;;;;;1.95;0.55;;;;;;;;;;5067589;28;20292;-67
2021/03/21 12:13:24;;;;;;;0.10;0.10;;;;;;;;;;5066944;28;20175;-68
2021/03/21 12:15:53;;;;;;;0.10;0.10;;;;;;;;;;5050509;28;20192;-67
2021/03/21 12:18:22;;;;;;;0.73;0.73;;;;;;;;;;5051386;28;20165;-68
2021/03/21 12:20:49;;;;;;;0.20;0.20;;;;;;;;;;5069261;28;20179;-67
2021/03/21 12:23:27;;;;;;;1.00;0.45;;;;;;;;;;5048190;28;20196;-68
2021/03/21 12:26:02;;;;;;;0.43;0.43;;;;;;;;;;5068522;28;20203;-68
2021/03/21 12:28:28;;;;;;;0.10;0.10;;;;;;;;;;5051151;28;20176;-68
2021/03/21 12:30:58;;;;;;;0.20;0.20;;;;;;;;;;5050900;28;20199;-70
2021/03/21 12:33:27;;;;;;;0.25;0.25;;;;;;;;;;5066789;28;20869;-69
2021/03/21 12:35:56;;;;;;;0.10;0.10;;;;;;;;;;5067804;28;20200;-69
2021/03/21 12:38:33;;;;;;;0.13;0.13;;;;;;;;;;5066598;28;20173;-69
2021/03/21 12:41:20;;;;;;;0.25;0.25;;;;;;;;;;5050017;28;20207;-68
2021/03/21 12:43:46;;;;;;;1.70;1.17;;;;;;;;;;5050218;28;20192;-68
2021/03/21 12:46:16;;;;;;;0.22;0.22;;;;;;;;;;5049397;28;20162;-68
2021/03/21 12:48:52;;;;;;;0.20;0.20;;;;;;;;;;5035241;28;20223;-68
2021/03/21 12:51:34;;;;;;;0.30;0.30;;;;;;;;;;5030231;28;20205;-68
2021/03/21 12:54:01;;;;;;;0.10;0.10;;;;;;;;;;5031958;28;20201;-68
2021/03/21 12:56:27;;;;;;;0.10;0.10;;;;;;;;;;5037223;28;20178;-69
2021/03/21 12:58:54;;;;;;;0.68;0.63;;;;;;;;;;5019171;28;20181;-66
2021/03/21 13:01:21;;;;;;;0.68;0.68;;;;;;;;;;5031072;28;20179;-71
2021/03/21 13:03:47;;;;;;;1.13;0.40;;;;;;;;;;5046352;28;20185;-72
2021/03/21 13:06:14;;;;;;;0.10;0.10;;;;;;;;;;5048455;28;20176;-73
2021/03/21 13:08:40;;;;;;;0.63;0.63;;;;;;;;;;5029735;28;20173;-69
2021/03/21 13:11:08;;;;;;;0.25;0.25;;;;;;;;;;5044068;28;20223;-69
2021/03/21 13:13:34;;;;;;;0.30;0.30;;;;;;;;;;5030525;28;20673;-68
2021/03/21 13:16:01;;;;;;;0.30;0.30;;;;;;;;;;5048078;28;20231;-69
2021/03/21 13:18:28;;;;;;;0.10;0.10;;;;;;;;;;5029471;28;20185;-68
2021/03/21 13:20:56;;;;;;;0.10;0.10;;;;;;;;;;5045325;28;20197;-68
2021/03/21 13:23:22;;;;;;;0.40;0.40;;;;;;;;;;5029912;28;20295;-68
2021/03/21 13:25:49;;;;;;;0.52;0.52;;;;;;;;;;5048425;28;20192;-69
2021/03/21 13:28:15;;;;;;;0.20;0.20;;;;;;;;;;5048970;28;20204;-69
2021/03/21 13:30:42;;;;;;;0.30;0.30;;;;;;;;;;5048230;28;20247;-69
2021/03/21 13:33:12;;;;;;;0.10;0.10;;;;;;;;;;5048927;28;20157;-70
2021/03/21 13:35:38;;;;;;;0.10;0.10;;;;;;;;;;5031077;28;20223;-67
2021/03/21 13:38:06;;;;;;;0.10;0.10;;;;;;;;;;5049095;28;20177;-70
2021/03/21 13:40:34;;;;;;;0.10;0.10;;;;;;;;;;5030152;28;20193;-71
2021/03/21 13:43:01;;;;;;;1.27;1.17;;;;;;;;;;5030994;28;20223;-71
2021/03/21 13:45:29;;;;;;;0.20;0.20;;;;;;;;;;5048657;28;20208;-69
2021/03/21 13:47:55;;;;;;;0.43;0.43;;;;;;;;;;5056266;28;20218;-70
2021/03/21 13:50:21;;;;;;;0.10;0.10;;;;;;;;;;5066499;28;20184;-69
2021/03/21 13:52:48;;;;;;;0.20;0.20;;;;;;;;;;5068653;28;20191;-69
2021/03/21 13:55:21;;;;;;;0.10;0.10;;;;;;;;;;5074379;28;20172;-68
2021/03/21 13:57:47;;;;;;;0.65;0.65;;;;;;;;;;5075567;28;20183;-68
2021/03/21 14:00:14;;;;;;;0.47;0.47;;;;;;;;;;5046648;28;20177;-69
2021/03/21 14:02:40;;;;;;;1.75;1.33;;;;;;;;;;5070408;28;20176;-69
2021/03/21 14:05:06;;;;;;;0.50;0.50;;;;;;;;;;5050622;28;20180;-68
2021/03/21 14:07:33;;;;;;;0.20;0.20;;;;;;;;;;5050465;28;20200;-69
2021/03/21 14:09:59;;;;;;;0.10;0.10;;;;;;;;;;5049905;28;20614;-68
2021/03/21 14:12:25;;;;;;;0.10;0.10;;;;;;;;;;5067241;28;20219;-69
2021/03/21 14:14:52;;;;;;;0.45;0.45;;;;;;;;;;5068457;28;20210;-68
2021/03/21 14:17:18;;;;;;;0.28;0.28;;;;;;;;;;5068068;28;20196;-69
2021/03/21 14:19:44;;;;;;;0.15;0.15;;;;;;;;;;5068367;28;20153;-69
2021/03/21 14:22:10;;;;;;;0.15;0.15;;;;;;;;;;5049977;28;20173;-68
2021/03/21 14:24:37;;;;;;;0.10;0.10;;;;;;;;;;5049383;28;20165;-68
2021/03/21 14:27:03;;;;;;;0.22;0.22;;;;;;;;;;5068027;28;20207;-68
2021/03/21 14:29:29;;;;;;;1.38;1.00;;;;;;;;;;5068089;28;20199;-68
2021/03/21 14:31:55;;;;;;;0.10;0.10;;;;;;;;;;5068182;28;20214;-68
2021/03/21 14:34:22;;;;;;;0.17;0.17;;;;;;;;;;5050968;28;20209;-68
2021/03/21 14:36:49;;;;;;;0.20;0.20;;;;;;;;;;5061399;28;20667;-68
2021/03/21 14:39:15;;;;;;;0.13;0.13;;;;;;;;;;5047975;28;20228;-68
2021/03/21 14:41:41;;;;;;;0.65;0.65;;;;;;;;;;5048159;28;20181;-69
2021/03/21 14:44:07;;;;;;;8.23;3.53;;;;;;;;;;5062905;28;20221;-69
2021/03/21 14:46:33;;;;;;;0.45;0.45;;;;;;;;;;5067117;28;20160;-69
2021/03/21 14:49:00;;;;;;;0.10;0.10;;;;;;;;;;5032975;28;20237;-68
2021/03/21 14:51:26;;;;;;;0.40;0.40;;;;;;;;;;5048188;28;20284;-69
2021/03/21 14:53:52;;;;;;;0.10;0.10;;;;;;;;;;5048140;28;20212;-69
2021/03/21 14:56:19;;;;;;;0.10;0.10;;;;;;;;;;5047349;28;20158;-69
2021/03/21 14:58:45;;;;;;;0.10;0.10;;;;;;;;;;5048437;28;20526;-68
2021/03/21 15:01:11;;;;;;;0.20;0.20;;;;;;;;;;5034555;28;20174;-68
2021/03/21 15:03:37;;;;;;;0.20;0.20;;;;;;;;;;5049999;28;20268;-68
2021/03/21 15:06:04;;;;;;;0.10;0.10;;;;;;;;;;5071488;28;20161;-69
2021/03/21 15:08:33;;;;;;;0.40;0.40;;;;;;;;;;5037491;28;20209;-69
2021/03/21 15:11:00;;;;;;;0.10;0.10;;;;;;;;;;5033856;28;20212;-69
2021/03/21 15:13:27;;;;;;;0.10;0.10;;;;;;;;;;5034281;28;20252;-68